Time;durP1;ratioP1;P1;durP2;ratioP2;P2;SDS_P1;SDS_P2;PMS_P1;PMS_P2;Temp;Humidity;BMP_temperature;BMP_pressure;BME280_temperature;BME280_humidity;BME280_pressure;Samples;Min_cycle;Max_cycle;Signal;HPM_P1;HPM_P2
2022/07/01 00:00:25;;;;;;;;;;;;;;;34.11;32.94;98759.94;4421357;32;34841;-90
2022/07/01 00:02:52;;;;;;;;;;;;;;;34.05;33.04;98759.66;4419981;32;34493;-93
2022/07/01 00:05:20;;;;;;;;;;;;;;;34.22;32.75;98758.97;4417563;32;34145;-88
2022/07/01 00:07:47;;;;;;;;;;;;;;;34.14;32.85;98764.22;4409421;32;34172;-96
2022/07/01 00:10:15;;;;;;;;;;;;;;;34.16;32.87;98766.75;4423932;32;34364;-87
2022/07/01 00:12:42;;;;;;;;;;;;;;;34.04;33.14;98766.03;4422737;32;33492;-91
2022/07/01 00:15:09;;;;;;;;;;;;;;;34.04;33.07;98766.03;4421386;32;34168;-96
2022/07/01 00:17:37;;;;;;;;;;;;;;;34.05;32.96;98759.66;4419023;32;34104;-96
2022/07/01 00:20:04;;;;;;;;;;;;;;;33.97;33.10;98760.31;4411248;32;33873;-96
2022/07/01 00:22:32;;;;;;;;;;;;;;;33.96;33.20;98760.47;4421368;32;33614;-96
2022/07/01 00:25:00;;;;;;;;;;;;;;;33.89;33.40;98760.16;4423690;32;33548;-96
2022/07/01 00:27:27;;;;;;;;;;;;;;;33.97;33.33;98762.16;4424888;32;34449;-93
2022/07/01 00:29:55;;;;;;;;;;;;;;;33.98;33.39;98763.84;4424996;32;34202;-95
2022/07/01 00:32:22;;;;;;;;;;;;;;;33.78;33.72;98765.66;4422897;32;34077;-96
2022/07/01 00:34:49;;;;;;;;;;;;;;;33.79;33.76;98760.16;4424605;32;34220;-88
2022/07/01 00:37:16;;;;;;;;;;;;;;;33.69;33.96;98763.78;4424609;32;35195;-95
2022/07/01 00:39:44;;;;;;;;;;;;;;;33.77;34.03;98764.81;4424116;32;34246;-90
2022/07/01 00:42:11;;;;;;;;;;;;;;;33.80;33.98;98767.22;4424091;32;33159;-93
2022/07/01 00:44:38;;;;;;;;;;;;;;;33.71;34.32;98772.56;4417033;32;33925;-86
2022/07/01 00:47:08;;;;;;;;;;;;;;;33.72;34.31;98767.06;4415496;32;34441;-87
2022/07/01 00:49:35;;;;;;;;;;;;;;;33.69;34.33;98764.66;4398933;32;35297;-87
2022/07/01 00:52:07;;;;;;;;;;;;;;;33.71;34.39;98762.66;4392816;32;33132;-87
2022/07/01 00:54:35;;;;;;;;;;;;;;;33.51;34.76;98751.00;4412278;32;34205;-90
2022/07/01 00:57:06;;;;;;;;;;;;;;;33.55;34.59;98752.41;4402468;32;34486;-90
2022/07/01 00:59:35;;;;;;;;;;;;;;;33.47;34.81;98762.16;4404140;32;34418;-93
2022/07/01 01:02:03;;;;;;;;;;;;;;;33.50;34.71;98756.50;4401255;32;34466;-88
2022/07/01 01:04:31;;;;;;;;;;;;;;;33.42;34.78;98752.63;4406667;32;34566;-87
2022/07/01 01:06:59;;;;;;;;;;;;;;;33.45;34.79;98762.25;4406397;32;35336;-86
2022/07/01 01:09:26;;;;;;;;;;;;;;;33.51;34.79;98756.38;4407079;32;33933;-91
2022/07/01 01:11:53;;;;;;;;;;;;;;;33.54;34.74;98760.63;4394078;32;34248;-86
2022/07/01 01:14:21;;;;;;;;;;;;;;;33.50;34.76;98759.22;4395553;32;33913;-86
2022/07/01 01:16:49;;;;;;;;;;;;;;;33.41;35.06;98759.00;4409794;32;35006;-85
2022/07/01 01:19:16;;;;;;;;;;;;;;;33.37;35.31;98764.75;4406796;32;35196;-93
2022/07/01 01:21:44;;;;;;;;;;;;;;;33.35;35.53;98764.91;4406977;32;33350;-92
2022/07/01 01:24:11;;;;;;;;;;;;;;;33.26;35.83;98754.94;4392830;32;34955;-89
2022/07/01 01:26:38;;;;;;;;;;;;;;;33.23;35.87;98757.94;4392787;32;34275;-91
2022/07/01 01:29:07;;;;;;;;;;;;;;;33.11;36.18;98769.72;4406776;32;34104;-86
2022/07/01 01:31:34;;;;;;;;;;;;;;;33.41;35.59;98761.69;4406225;32;33829;-88
2022/07/01 01:34:02;;;;;;;;;;;;;;;33.30;35.79;98761.78;4406810;32;34065;-90
2022/07/01 01:36:30;;;;;;;;;;;;;;;33.27;35.92;98764.72;4392867;32;34510;-87
2022/07/01 01:39:12;;;;;;;;;;;;;;;33.20;36.14;98777.00;4406304;32;34611;-87
2022/07/01 01:41:39;;;;;;;;;;;;;;;33.08;36.26;98775.38;4405956;32;34202;-86
2022/07/01 01:44:06;;;;;;;;;;;;;;;32.97;36.44;98773.59;4406594;32;34226;-87
2022/07/01 01:46:34;;;;;;;;;;;;;;;32.97;36.42;98767.41;4406165;32;34271;-90
2022/07/01 01:49:02;;;;;;;;;;;;;;;32.86;36.51;98768.28;4406056;32;34620;-86
2022/07/01 01:51:30;;;;;;;;;;;;;;;32.82;36.46;98765.00;4393722;32;33678;-86
2022/07/01 01:53:57;;;;;;;;;;;;;;;32.89;36.20;98768.88;4395130;32;34027;-86
2022/07/01 01:56:24;;;;;;;;;;;;;;;32.77;36.35;98761.88;4413544;32;35293;-91
2022/07/01 01:58:52;;;;;;;;;;;;;;;32.80;36.09;98766.94;4422619;32;33909;-88
2022/07/01 02:01:19;;;;;;;;;;;;;;;32.77;36.03;98766.34;4409192;32;34532;-92
2022/07/01 02:03:47;;;;;;;;;;;;;;;32.75;36.01;98761.13;4408088;32;34957;-89
2022/07/01 02:06:15;;;;;;;;;;;;;;;32.73;35.93;98755.03;4407583;32;34391;-89
2022/07/01 02:08:42;;;;;;;;;;;;;;;32.56;36.29;98750.25;4408221;32;34331;-87
2022/07/01 02:11:10;;;;;;;;;;;;;;;32.61;36.16;98750.72;4421520;32;34665;-86
2022/07/01 02:13:37;;;;;;;;;;;;;;;32.66;36.06;98759.25;4415380;32;34858;-86
2022/07/01 02:16:05;;;;;;;;;;;;;;;32.62;36.11;98758.66;4421613;32;34147;-95
2022/07/01 02:18:32;;;;;;;;;;;;;;;32.56;36.31;98750.25;4408800;32;34191;-85
2022/07/01 02:20:59;;;;;;;;;;;;;;;32.56;36.21;98750.25;4421277;32;34139;-89
2022/07/01 02:23:26;;;;;;;;;;;;;;;32.55;36.21;98757.47;4421838;32;33896;-95
2022/07/01 02:25:54;;;;;;;;;;;;;;;32.47;36.24;98754.59;4421558;32;35091;-96
2022/07/01 02:28:21;;;;;;;;;;;;;;;32.58;36.05;98759.00;4408652;32;34420;-96
2022/07/01 02:30:48;;;;;;;;;;;;;;;32.51;36.15;98760.53;4433358;32;34118;-89
2022/07/01 02:33:16;;;;;;;;;;;;;;;32.54;36.12;98761.09;4432602;32;34429;-85
2022/07/01 02:35:43;;;;;;;;;;;;;;;32.57;36.06;98760.00;4430714;32;35475;-95
2022/07/01 02:38:15;;;;;;;;;;;;;;;32.51;36.07;98768.59;4425371;32;34974;-86
2022/07/01 02:40:43;;;;;;;;;;;;;;;32.52;36.09;98770.28;4425994;32;33327;-86
2022/07/01 02:43:10;;;;;;;;;;;;;;;32.46;36.20;98777.84;4423389;32;35261;-84
2022/07/01 02:45:37;;;;;;;;;;;;;;;32.50;36.08;98769.56;4421363;32;35184;-91
2022/07/01 02:48:05;;;;;;;;;;;;;;;32.50;36.15;98772.22;4392208;32;33465;-86
2022/07/01 02:50:32;;;;;;;;;;;;;;;32.37;36.33;98770.56;4407551;32;33678;-89
2022/07/01 02:52:59;;;;;;;;;;;;;;;32.37;36.29;98769.72;4408716;32;34217;-95
2022/07/01 02:55:28;;;;;;;;;;;;;;;32.39;36.21;98782.03;4423709;32;35418;-88
2022/07/01 02:57:56;;;;;;;;;;;;;;;32.48;36.07;98776.91;4424577;32;35504;-86
2022/07/01 03:00:23;;;;;;;;;;;;;;;32.34;36.33;98784.22;4424704;32;34573;-92
2022/07/01 03:02:52;;;;;;;;;;;;;;;32.41;36.21;98784.59;4424854;32;35091;-87
2022/07/01 03:05:19;;;;;;;;;;;;;;;32.48;36.04;98780.44;4397848;32;34065;-91
2022/07/01 03:07:47;;;;;;;;;;;;;;;32.48;35.97;98785.78;4424059;32;34676;-95
2022/07/01 03:10:15;;;;;;;;;;;;;;;32.40;36.15;98783.75;4424086;32;34248;-92
2022/07/01 03:12:42;;;;;;;;;;;;;;;32.41;36.17;98780.09;4424373;32;34023;-95
2022/07/01 03:15:10;;;;;;;;;;;;;;;32.44;36.11;98777.16;4424756;32;34896;-92
2022/07/01 03:17:38;;;;;;;;;;;;;;;32.47;36.10;98781.41;4423801;32;34522;-95
2022/07/01 03:20:06;;;;;;;;;;;;;;;32.44;36.19;98787.03;4424767;32;33678;-96
2022/07/01 03:22:34;;;;;;;;;;;;;;;32.48;36.20;98793.84;4412227;32;34096;-86
2022/07/01 03:25:02;;;;;;;;;;;;;;;32.59;36.08;98790.25;4421673;32;34510;-88
2022/07/01 03:27:30;;;;;;;;;;;;;;;32.63;35.98;98797.06;4421383;32;35102;-96
2022/07/01 03:29:57;;;;;;;;;;;;;;;32.69;36.06;98797.41;4422164;32;33735;-90
2022/07/01 03:32:25;;;;;;;;;;;;;;;32.75;36.20;98809.47;4396018;32;34108;-91
2022/07/01 03:34:52;;;;;;;;;;;;;;;32.46;36.82;98819.94;4419104;32;34552;-93
2022/07/01 03:37:20;;;;;;;;;;;;;;;32.67;36.54;98820.84;4420563;32;35053;-96
2022/07/01 03:39:48;;;;;;;;;;;;;;;32.75;36.47;98817.50;4421813;32;33608;-91
2022/07/01 03:42:15;;;;;;;;;;;;;;;32.90;36.34;98826.09;4394624;32;33523;-96
2022/07/01 03:44:44;;;;;;;;;;;;;;;32.90;36.32;98821.56;4421262;32;34277;-96
2022/07/01 03:47:11;;;;;;;;;;;;;;;32.93;36.50;98826.72;4420503;32;34334;-91
2022/07/01 03:49:38;;;;;;;;;;;;;;;32.98;36.61;98838.91;4421531;32;33899;-91
2022/07/01 03:52:05;;;;;;;;;;;;;;;33.30;36.40;98842.37;4406993;32;34258;-94
2022/07/01 03:54:37;;;;;;;;;;;;;;;33.63;35.69;98849.34;4407255;32;33909;-94
2022/07/01 03:57:07;;;;;;;;;;;;;;;33.88;35.44;98842.69;4404550;32;33593;-89
2022/07/01 03:59:38;;;;;;;;;;;;;;;34.18;34.95;98849.03;4405753;32;33332;-88
2022/07/01 04:02:06;;;;;;;;;;;;;;;34.37;34.70;98841.00;4405459;32;34643;-91
2022/07/01 04:04:35;;;;;;;;;;;;;;;34.63;34.39;98845.88;4391983;32;35560;-95
2022/07/01 04:07:04;;;;;;;;;;;;;;;34.81;34.15;98841.44;4392021;32;35329;-91
2022/07/01 04:09:32;;;;;;;;;;;;;;;35.03;33.95;98836.81;4391486;32;33432;-84
2022/07/01 04:11:59;;;;;;;;;;;;;;;35.25;33.72;98839.16;4404817;32;34063;-88
2022/07/01 04:14:26;;;;;;;;;;;;;;;35.43;33.65;98847.38;4405484;32;34033;-89
2022/07/01 04:16:53;;;;;;;;;;;;;;;35.62;33.16;98838.41;4391259;32;34140;-88
2022/07/01 04:19:21;;;;;;;;;;;;;;;35.85;32.90;98838.00;4392055;32;34378;-90
2022/07/01 04:24:34;;;;;;;;;;;;;;;36.31;32.40;98828.97;4404698;32;35046;-88
2022/07/01 04:27:02;;;;;;;;;;;;;;;36.36;32.57;98833.91;4405611;32;34466;-94
2022/07/01 04:29:30;;;;;;;;;;;;;;;36.64;32.18;98835.59;4404685;32;33394;-94
2022/07/01 04:31:57;;;;;;;;;;;;;;;36.56;32.77;98835.50;4391598;32;34282;-92
2022/07/01 04:34:25;;;;;;;;;;;;;;;36.92;32.00;98830.06;4404880;32;34398;-89
2022/07/01 04:36:52;;;;;;;;;;;;;;;36.75;32.46;98832.66;4404498;32;35214;-92
2022/07/01 04:39:19;;;;;;;;;;;;;;;37.16;31.36;98829.44;4404553;32;33458;-93
2022/07/01 04:41:59;;;;;;;;;;;;;;;36.32;32.71;98825.25;4405471;32;33741;-92
2022/07/01 04:44:36;;;;;;;;;;;;;;;36.71;31.91;98827.69;4404987;32;34537;-90
2022/07/01 04:47:09;;;;;;;;;;;;;;;37.58;31.24;98826.87;4378778;32;34940;-83
2022/07/01 04:49:37;;;;;;;;;;;;;;;35.96;33.48;98829.72;4405048;32;33580;-84
2022/07/01 04:52:04;;;;;;;;;;;;;;;36.28;32.38;98822.00;4404883;32;34352;-85
2022/07/01 04:54:31;;;;;;;;;;;;;;;36.15;33.27;98824.25;4405079;32;34037;-84
2022/07/01 04:56:58;;;;;;;;;;;;;;;36.28;31.82;98819.31;4400250;32;34578;-88
2022/07/01 04:59:26;;;;;;;;;;;;;;;34.96;34.34;98819.47;4405253;32;33402;-86
2022/07/01 05:01:53;;;;;;;;;;;;;;;36.03;32.49;98820.06;4404971;32;34288;-84
2022/07/01 05:04:21;;;;;;;;;;;;;;;36.04;31.96;98822.59;4402580;32;33517;-89
2022/07/01 05:06:48;;;;;;;;;;;;;;;36.39;31.80;98820.09;4404439;32;34572;-85
2022/07/01 05:09:15;;;;;;;;;;;;;;;37.59;29.79;98825.84;4404769;32;34070;-88
2022/07/01 05:11:42;;;;;;;;;;;;;;;38.12;29.20;98827.47;4404913;32;34271;-91
2022/07/01 05:14:10;;;;;;;;;;;;;;;36.54;31.34;98832.09;4404054;32;34122;-89
2022/07/01 05:16:37;;;;;;;;;;;;;;;37.48;30.41;98842.34;4404583;32;34579;-91
2022/07/01 05:21:56;;;;;;;;;;;;;;;38.35;29.15;98838.53;4404513;32;34189;-92
2022/07/01 05:24:28;;;;;;;;;;;;;;;38.64;28.93;98848.94;4403726;32;34330;-85
2022/07/01 05:26:55;;;;;;;;;;;;;;;39.26;28.57;98844.91;4403864;32;34127;-89
2022/07/01 05:29:23;;;;;;;;;;;;;;;38.55;29.72;98843.66;4402307;32;34442;-91
2022/07/01 05:31:51;;;;;;;;;;;;;;;37.74;30.10;98856.72;4396764;32;34566;-88
2022/07/01 05:34:18;;;;;;;;;;;;;;;38.06;29.27;98855.16;4394841;32;34016;-94
2022/07/01 05:36:45;;;;;;;;;;;;;;;38.94;28.77;98846.59;4404520;32;34522;-85
2022/07/01 05:39:14;;;;;;;;;;;;;;;38.19;28.98;98847.44;4403822;32;33795;-86
2022/07/01 05:41:41;;;;;;;;;;;;;;;39.16;28.04;98853.19;4402994;32;33605;-85
2022/07/01 05:44:08;;;;;;;;;;;;;;;39.20;27.97;98851.81;4404354;32;33890;-82
2022/07/01 05:46:36;;;;;;;;;;;;;;;38.23;28.96;98866.91;4403249;32;33953;-94
2022/07/01 05:49:04;;;;;;;;;;;;;;;37.25;31.38;98866.34;4405794;32;33114;-95
2022/07/01 05:51:32;;;;;;;;;;;;;;;36.05;33.19;98866.63;4395206;32;34473;-93
2022/07/01 05:54:02;;;;;;;;;;;;;;;35.02;35.02;98876.38;4407187;32;35249;-84
2022/07/01 05:56:29;;;;;;;;;;;;;;;36.03;33.95;98874.03;4415246;32;34361;-87
2022/07/01 05:58:56;;;;;;;;;;;;;;;35.56;34.10;98882.13;4421926;32;33533;-91
2022/07/01 06:01:24;;;;;;;;;;;;;;;36.46;32.68;98880.59;4421526;32;34233;-86
2022/07/01 06:03:51;;;;;;;;;;;;;;;37.74;30.72;98886.47;4421400;32;34577;-85
2022/07/01 06:06:19;;;;;;;;;;;;;;;37.26;30.92;98881.56;4421746;32;35185;-90
2022/07/01 06:08:47;;;;;;;;;;;;;;;36.96;31.54;98886.38;4421926;32;33445;-85
2022/07/01 06:11:14;;;;;;;;;;;;;;;36.62;32.50;98883.47;4422548;32;34427;-92
2022/07/01 06:13:42;;;;;;;;;;;;;;;36.79;32.52;98887.22;4423994;32;34397;-93
2022/07/01 06:16:10;;;;;;;;;;;;;;;35.29;34.78;98893.63;4411326;32;34565;-91
2022/07/01 06:18:38;;;;;;;;;;;;;;;34.69;36.61;98885.69;4412046;32;34115;-93
2022/07/01 06:21:05;;;;;;;;;;;;;;;33.80;37.78;98901.66;4423734;32;33725;-96
2022/07/01 06:23:32;;;;;;;;;;;;;;;35.46;35.09;98897.41;4410716;32;34057;-94
2022/07/01 06:26:00;;;;;;;;;;;;;;;36.15;33.84;98899.81;4409058;32;34453;-87
2022/07/01 06:28:29;;;;;;;;;;;;;;;36.20;33.74;98902.91;4423769;32;34394;-92
2022/07/01 06:30:57;;;;;;;;;;;;;;;37.16;32.71;98905.97;4396484;32;33036;-85
2022/07/01 06:33:29;;;;;;;;;;;;;;;35.85;33.94;98900.06;4411891;32;34625;-90
2022/07/01 06:35:57;;;;;;;;;;;;;;;35.60;34.68;98902.38;4429058;32;34623;-92
2022/07/01 06:38:24;;;;;;;;;;;;;;;36.62;33.56;98898.84;4425033;32;34406;-83
2022/07/01 06:43:37;;;;;;;;;;;;;;;37.01;31.71;98899.41;4423104;32;35220;-92
2022/07/01 06:46:05;;;;;;;;;;;;;;;37.28;31.71;98895.78;4424942;32;34353;-92
2022/07/01 06:48:32;;;;;;;;;;;;;;;37.05;32.28;98895.37;4422838;32;33249;-91
2022/07/01 06:50:59;;;;;;;;;;;;;;;37.38;31.76;98896.50;4422130;32;34481;-91
2022/07/01 06:53:27;;;;;;;;;;;;;;;37.92;30.50;98899.09;4424973;32;34424;-93
2022/07/01 06:55:54;;;;;;;;;;;;;;;38.35;29.51;98902.69;4422263;32;35188;-83
2022/07/01 06:58:21;;;;;;;;;;;;;;;37.60;31.14;98905.13;4421255;32;33445;-84
2022/07/01 07:00:49;;;;;;;;;;;;;;;37.88;30.03;98903.13;4419792;32;34100;-83
2022/07/01 07:03:16;;;;;;;;;;;;;;;38.21;29.87;98896.84;4423264;32;34085;-84
2022/07/01 07:05:43;;;;;;;;;;;;;;;38.74;30.56;98902.94;4424007;32;34919;-87
2022/07/01 07:08:11;;;;;;;;;;;;;;;39.34;28.18;98891.00;4422439;32;32961;-95
2022/07/01 07:10:38;;;;;;;;;;;;;;;38.03;29.52;98901.50;4408608;32;33869;-82
2022/07/01 07:13:05;;;;;;;;;;;;;;;38.06;29.50;98901.19;4421771;32;35410;-93
2022/07/01 07:15:33;;;;;;;;;;;;;;;37.03;31.18;98896.56;4422232;32;34875;-92
2022/07/01 07:18:00;;;;;;;;;;;;;;;38.26;29.79;98892.81;4422149;32;34150;-86
2022/07/01 07:20:27;;;;;;;;;;;;;;;38.48;28.81;98886.81;4421071;32;33685;-83
2022/07/01 07:22:55;;;;;;;;;;;;;;;38.88;28.21;98887.94;4406826;32;34318;-83
2022/07/01 07:25:22;;;;;;;;;;;;;;;38.02;28.86;98896.28;4418266;32;34536;-85
2022/07/01 07:27:49;;;;;;;;;;;;;;;37.59;29.13;98882.66;4406662;32;33978;-87
2022/07/01 07:30:17;;;;;;;;;;;;;;;38.39;28.68;98876.97;4418730;32;34869;-91
2022/07/01 07:32:44;;;;;;;;;;;;;;;38.36;28.91;98878.16;4421253;32;35206;-91
2022/07/01 07:35:12;;;;;;;;;;;;;;;38.83;28.06;98877.59;4419398;32;34629;-93
2022/07/01 07:37:39;;;;;;;;;;;;;;;38.68;28.46;98884.62;4392217;32;33407;-87
2022/07/01 07:40:09;;;;;;;;;;;;;;;38.83;28.19;98871.31;4406081;32;34031;-91
2022/07/01 07:42:36;;;;;;;;;;;;;;;39.22;27.23;98876.06;4395331;32;35279;-89
2022/07/01 07:45:06;;;;;;;;;;;;;;;37.94;28.84;98888.97;4408613;32;34250;-89
2022/07/01 07:47:33;;;;;;;;;;;;;;;38.08;28.20;98890.22;4421145;32;33668;-88
2022/07/01 07:50:01;;;;;;;;;;;;;;;38.51;28.34;98880.22;4407764;32;33838;-83
2022/07/01 07:52:28;;;;;;;;;;;;;;;38.61;27.90;98868.22;4423881;32;34879;-91
2022/07/01 07:54:55;;;;;;;;;;;;;;;38.88;27.62;98877.09;4421460;32;34390;-85
2022/07/01 07:57:22;;;;;;;;;;;;;;;39.08;27.83;98883.03;4421647;32;34755;-92
2022/07/01 07:59:50;;;;;;;;;;;;;;;38.89;27.41;98884.19;4407451;32;32605;-90
2022/07/01 08:02:17;;;;;;;;;;;;;;;38.38;27.34;98892.38;4421380;32;34838;-86
2022/07/01 08:04:51;;;;;;;;;;;;;;;36.96;29.20;98896.34;4407378;32;34038;-82
2022/07/01 08:07:18;;;;;;;;;;;;;;;37.47;28.95;98898.31;4420849;32;33714;-92
2022/07/01 08:09:47;;;;;;;;;;;;;;;38.05;27.69;98899.50;4421017;32;34202;-91
2022/07/01 08:12:15;;;;;;;;;;;;;;;37.81;28.21;98893.91;4413354;32;34277;-87
2022/07/01 08:14:43;;;;;;;;;;;;;;;38.73;27.50;98889.56;4415706;32;34148;-89
2022/07/01 08:17:10;;;;;;;;;;;;;;;38.78;26.74;98887.22;4397656;32;35328;-87
2022/07/01 08:19:38;;;;;;;;;;;;;;;38.13;27.03;98888.69;4419678;32;33665;-83
2022/07/01 08:22:05;;;;;;;;;;;;;;;38.45;27.98;98893.44;4421327;32;35000;-87
2022/07/01 08:24:32;;;;;;;;;;;;;;;38.22;27.08;98898.53;4421900;32;34245;-90
2022/07/01 08:27:00;;;;;;;;;;;;;;;38.81;26.31;98895.03;4422828;32;34386;-95
2022/07/01 08:29:27;;;;;;;;;;;;;;;38.26;26.03;98901.75;4422962;32;34429;-93
2022/07/01 08:31:54;;;;;;;;;;;;;;;38.11;26.46;98901.56;4423516;32;34340;-92
2022/07/01 08:34:22;;;;;;;;;;;;;;;37.81;27.25;98902.03;4421521;32;35254;-94
2022/07/01 08:36:49;;;;;;;;;;;;;;;38.49;26.98;98893.91;4418550;32;33638;-85
2022/07/01 08:39:16;;;;;;;;;;;;;;;38.64;26.06;98905.81;4407022;32;33485;-92
2022/07/01 08:41:44;;;;;;;;;;;;;;;38.09;26.77;98909.00;4421179;32;34515;-90
2022/07/01 08:44:11;;;;;;;;;;;;;;;37.08;27.57;98896.94;4421281;32;35336;-87
2022/07/01 08:46:38;;;;;;;;;;;;;;;37.65;28.02;98897.38;4411296;32;34086;-85
2022/07/01 08:49:06;;;;;;;;;;;;;;;38.02;27.04;98904.37;4408279;32;34865;-85
2022/07/01 08:51:33;;;;;;;;;;;;;;;38.26;26.57;98898.22;4407091;32;35208;-87
2022/07/01 08:54:01;;;;;;;;;;;;;;;38.77;26.03;98894.50;4420909;32;35169;-91
2022/07/01 08:56:40;;;;;;;;;;;;;;;38.66;25.56;98901.06;4391011;32;32552;-84
2022/07/01 08:59:09;;;;;;;;;;;;;;;38.73;25.72;98895.84;4403144;32;35266;-86
2022/07/01 09:01:36;;;;;;;;;;;;;;;38.84;25.35;98889.28;4390774;32;35337;-92
2022/07/01 09:04:22;;;;;;;;;;;;;;;38.80;25.45;98885.22;4389428;32;32514;-84
2022/07/01 09:06:50;;;;;;;;;;;;;;;38.81;25.84;98886.91;4391300;32;33245;-87
2022/07/01 09:09:20;;;;;;;;;;;;;;;39.23;25.02;98888.59;4395323;32;33807;-91
2022/07/01 09:11:54;;;;;;;;;;;;;;;39.02;25.23;98886.41;4390588;32;34365;-93
2022/07/01 09:14:27;;;;;;;;;;;;;;;39.45;24.56;98887.09;4377516;32;34208;-87
2022/07/01 09:16:57;;;;;;;;;;;;;;;38.96;24.40;98882.50;4396974;32;33830;-88
2022/07/01 09:19:26;;;;;;;;;;;;;;;39.26;24.97;98880.16;4394387;32;34942;-92
2022/07/01 09:21:57;;;;;;;;;;;;;;;39.41;24.38;98873.87;4403697;32;34127;-90
2022/07/01 09:24:30;;;;;;;;;;;;;;;39.60;23.89;98871.81;4391720;32;34292;-85
2022/07/01 09:26:59;;;;;;;;;;;;;;;38.61;23.82;98872.81;4407044;32;34550;-86
2022/07/01 09:29:27;;;;;;;;;;;;;;;39.08;23.90;98878.44;4392668;32;33665;-89
2022/07/01 09:31:54;;;;;;;;;;;;;;;39.40;23.06;98871.31;4407149;32;34430;-88
2022/07/01 09:34:22;;;;;;;;;;;;;;;38.90;23.46;98866.91;4406339;32;34374;-87
2022/07/01 09:36:53;;;;;;;;;;;;;;;39.28;23.86;98869.97;4406575;32;34463;-86
2022/07/01 09:39:20;;;;;;;;;;;;;;;39.31;24.78;98878.63;4393203;32;34308;-83
2022/07/01 09:42:01;;;;;;;;;;;;;;;39.35;24.20;98879.13;4392451;32;34977;-86
2022/07/01 09:44:28;;;;;;;;;;;;;;;39.43;23.92;98873.69;4392566;32;34089;-88
2022/07/01 09:46:56;;;;;;;;;;;;;;;38.78;24.78;98870.94;4394007;32;33319;-87
2022/07/01 09:49:24;;;;;;;;;;;;;;;38.65;24.73;98860.63;4392108;32;34301;-86
2022/07/01 09:51:53;;;;;;;;;;;;;;;39.24;23.76;98874.06;4404798;32;34412;-85
2022/07/01 09:54:20;;;;;;;;;;;;;;;39.24;24.24;98880.31;4392106;32;34243;-85
2022/07/01 09:56:47;;;;;;;;;;;;;;;39.27;23.61;98876.44;4402214;32;33530;-84
2022/07/01 09:59:17;;;;;;;;;;;;;;;39.29;24.35;98877.12;4396872;32;34345;-85
2022/07/01 10:01:44;;;;;;;;;;;;;;;39.48;23.65;98874.03;4399913;32;35918;-89
2022/07/01 10:04:12;;;;;;;;;;;;;;;39.48;23.85;98874.03;4403784;32;35174;-89
2022/07/01 10:06:52;;;;;;;;;;;;;;;39.57;23.75;98862.12;4391589;32;33191;-88
2022/07/01 10:09:25;;;;;;;;;;;;;;;39.88;22.59;98872.25;4405662;32;35121;-88
2022/07/01 10:12:25;;;;;;;;;;;;;;;38.88;24.65;98858.13;4405868;32;34408;-92
2022/07/01 10:14:52;;;;;;;;;;;;;;;39.62;22.81;98857.03;4356697;32;35099;-86
2022/07/01 10:17:29;;;;;;;;;;;;;;;39.94;22.95;98863.41;4404956;32;33142;-89
2022/07/01 10:19:58;;;;;;;;;;;;;;;40.30;22.10;98849.34;4402278;32;34550;-91
2022/07/01 10:22:27;;;;;;;;;;;;;;;39.71;21.87;98852.47;4404708;32;35409;-88
2022/07/01 10:24:55;;;;;;;;;;;;;;;39.45;22.12;98849.97;4405065;32;34529;-88
2022/07/01 10:27:23;;;;;;;;;;;;;;;39.81;21.57;98852.25;4404919;32;34248;-87
2022/07/01 10:30:10;;;;;;;;;;;;;;;39.95;21.83;98854.25;4405816;32;33900;-87
2022/07/01 10:32:47;;;;;;;;;;;;;;;39.93;21.66;98852.72;4405116;32;33587;-83
2022/07/01 10:35:35;;;;;;;;;;;;;;;40.21;21.38;98853.97;4405495;32;34542;-84
2022/07/01 10:38:03;;;;;;;;;;;;;;;40.60;21.10;98851.22;4405032;32;34072;-90
2022/07/01 10:40:40;;;;;;;;;;;;;;;39.83;21.75;98833.94;4405112;32;33999;-88
2022/07/01 10:43:08;;;;;;;;;;;;;;;39.19;22.32;98847.44;4370321;32;33138;-85
2022/07/01 10:45:47;;;;;;;;;;;;;;;38.92;22.32;98841.34;4405622;32;35232;-91
2022/07/01 10:48:21;;;;;;;;;;;;;;;39.64;21.58;98846.84;4405810;32;33481;-92
2022/07/01 10:50:48;;;;;;;;;;;;;;;39.78;21.31;98841.75;4392336;32;33513;-85
2022/07/01 10:53:16;;;;;;;;;;;;;;;40.40;21.13;98839.09;4393588;32;34967;-83
2022/07/01 10:55:47;;;;;;;;;;;;;;;40.32;21.21;98841.87;4381930;32;867714;-83
2022/07/01 10:58:18;;;;;;;;;;;;;;;39.23;23.07;98843.34;4404513;32;34044;-87
2022/07/01 11:00:46;;;;;;;;;;;;;;;39.56;22.97;98852.31;4381729;32;34182;-87
2022/07/01 11:03:15;;;;;;;;;;;;;;;40.24;22.57;98841.94;4407545;32;34283;-91
2022/07/01 11:05:43;;;;;;;;;;;;;;;40.52;20.76;98834.94;4405553;32;34932;-84
2022/07/01 11:08:11;;;;;;;;;;;;;;;40.23;21.33;98851.06;4412138;32;33557;-93
2022/07/01 11:10:51;;;;;;;;;;;;;;;39.80;22.28;98856.00;4407720;32;33707;-96
2022/07/01 11:13:18;;;;;;;;;;;;;;;39.98;22.34;98843.03;4419337;32;35253;-86
2022/07/01 11:15:46;;;;;;;;;;;;;;;40.04;21.90;98841.47;4396471;32;35369;-91
2022/07/01 11:18:14;;;;;;;;;;;;;;;40.21;21.73;98845.00;4391244;32;33231;-88
2022/07/01 11:20:42;;;;;;;;;;;;;;;39.98;22.06;98843.03;4419965;32;33563;-87
2022/07/01 11:23:09;;;;;;;;;;;;;;;40.57;21.69;98835.25;4421492;32;35244;-87
2022/07/01 11:25:38;;;;;;;;;;;;;;;39.71;21.72;98843.50;4395011;32;34523;-86
2022/07/01 11:28:05;;;;;;;;;;;;;;;39.62;21.87;98834.47;4409090;32;33667;-91
2022/07/01 11:30:32;;;;;;;;;;;;;;;39.92;22.05;98830.16;4423143;32;34249;-94
2022/07/01 11:32:59;;;;;;;;;;;;;;;40.31;21.86;98826.56;4395668;32;34472;-88
2022/07/01 11:41:02;;;;;;;;;;;;;;;40.45;20.54;98798.66;4409449;32;33627;-91
2022/07/01 11:43:32;;;;;;;;;;;;;;;40.07;20.87;98806.66;4422765;32;34138;-93
2022/07/01 11:46:01;;;;;;;;;;;;;;;40.43;20.77;98798.00;4421456;32;34731;-91
2022/07/01 11:48:30;;;;;;;;;;;;;;;40.50;20.73;98798.09;4421831;32;34383;-89
2022/07/01 11:50:59;;;;;;;;;;;;;;;40.75;21.01;98802.34;4395147;32;32875;-86
2022/07/01 11:53:27;;;;;;;;;;;;;;;39.81;22.02;98804.25;4421435;32;34392;-87
2022/07/01 11:55:54;;;;;;;;;;;;;;;40.32;20.98;98798.41;4419196;32;34441;-87
2022/07/01 11:58:22;;;;;;;;;;;;;;;39.74;21.99;98796.97;4417123;32;33705;-84
2022/07/01 12:00:50;;;;;;;;;;;;;;;40.26;20.92;98777.41;4413999;32;33825;-86
2022/07/01 12:03:30;;;;;;;;;;;;;;;39.44;21.67;98783.19;4415692;32;34519;-84
2022/07/01 12:05:58;;;;;;;;;;;;;;;40.05;21.18;98780.72;4403266;32;34987;-88
2022/07/01 12:08:26;;;;;;;;;;;;;;;40.18;20.72;98775.56;4406399;32;33658;-83
2022/07/01 12:10:53;;;;;;;;;;;;;;;40.48;20.25;98784.72;4382842;32;33678;-85
2022/07/01 12:13:21;;;;;;;;;;;;;;;40.75;19.12;98779.75;4407281;32;34220;-96
2022/07/01 12:15:48;;;;;;;;;;;;;;;40.72;19.24;98780.13;4420777;32;35118;-90
2022/07/01 12:18:16;;;;;;;;;;;;;;;40.64;20.18;98788.34;4420898;32;34222;-85
2022/07/01 12:20:50;;;;;;;;;;;;;;;40.74;19.80;98772.66;4407217;32;33602;-88
2022/07/01 12:23:18;;;;;;;;;;;;;;;40.88;19.42;98768.25;4396545;32;34202;-87
2022/07/01 12:25:51;;;;;;;;;;;;;;;41.37;18.97;98768.66;4414433;32;34794;-86
2022/07/01 12:28:25;;;;;;;;;;;;;;;41.58;18.64;98758.91;4401180;32;33613;-84
2022/07/01 12:30:59;;;;;;;;;;;;;;;41.14;18.14;98763.25;4407496;32;33897;-88
2022/07/01 12:33:26;;;;;;;;;;;;;;;41.19;18.31;98763.56;4419421;32;34121;-90
2022/07/01 12:35:53;;;;;;;;;;;;;;;40.41;19.00;98772.03;4406133;32;33897;-87
2022/07/01 12:38:21;;;;;;;;;;;;;;;40.90;18.81;98756.19;4414046;32;33764;-92
2022/07/01 12:40:48;;;;;;;;;;;;;;;41.56;17.84;98748.19;4414966;32;34788;-87
2022/07/01 12:43:28;;;;;;;;;;;;;;;41.53;18.91;98746.72;4401933;32;34841;-86
2022/07/01 12:45:56;;;;;;;;;;;;;;;41.65;18.36;98744.34;4406837;32;33933;-85
2022/07/01 12:48:24;;;;;;;;;;;;;;;41.29;19.33;98760.56;4422049;32;33676;-87
2022/07/01 12:50:52;;;;;;;;;;;;;;;40.81;19.16;98746.44;4407874;32;34065;-90
2022/07/01 12:53:20;;;;;;;;;;;;;;;40.23;19.01;98743.28;4420783;32;34224;-88
2022/07/01 12:55:49;;;;;;;;;;;;;;;40.07;19.25;98730.63;4423129;32;34149;-94
2022/07/01 12:58:17;;;;;;;;;;;;;;;40.80;19.17;98736.56;4423716;32;33486;-91
2022/07/01 13:00:45;;;;;;;;;;;;;;;41.32;18.79;98722.09;4422498;32;35065;-95
2022/07/01 13:03:12;;;;;;;;;;;;;;;41.18;18.04;98731.09;4424498;32;35268;-92
2022/07/01 13:05:40;;;;;;;;;;;;;;;40.74;18.84;98724.56;4425653;32;34907;-93
2022/07/01 13:08:08;;;;;;;;;;;;;;;40.23;18.37;98720.72;4427681;32;33514;-93